Terminal Aerodrome Forecast
Issued by NWS

Home | Current Version | Previous Version | Text Only | Print | Product List | Glossary Off
Versions: 1 2 3 4 5 6 7 8 9 10 11 12 13 14 15 16 17 18 19 20 21 22 23 24 25 26 27 28 29 30 31 32 33 34 35 36 37 38

000
FTUS43 KGRB 202100 AAA
TAFRHI
TAF AMD
KRHI 202108Z 2021/2118 31006KT P6SM SCT050 BKN250
     FM210000 VRB03KT P6SM SCT040 BKN100
     FM210200 32003KT 5SM -SHRA BR SCT020 OVC035
      TEMPO 2102/2104 3SM -TSRA BR BKN020CB
     FM211200 36006KT P6SM VCSH BKN015
     FM211500 34009KT P6SM BKN025=

USA.gov is the U.S. government's official web portal to all federal, state and local government web resources and services.